Time;durP1;ratioP1;P1;durP2;ratioP2;P2;SDS_P1;SDS_P2;PMS_P1;PMS_P2;Temp;Humidity;BMP_temperature;BMP_pressure;BME280_temperature;BME280_humidity;BME280_pressure;Samples;Min_cycle;Max_cycle;Signal;HPM_P1;HPM_P2
2023/08/29 00:01:38;;;;;;;5.20;2.10;;;12.30;97.20;;;;;;4928068;29;20150;-75
2023/08/29 00:04:05;;;;;;;5.88;2.50;;;12.30;97.10;;;;;;4953668;28;20062;-74
2023/08/29 00:06:32;;;;;;;3.63;2.38;;;12.30;96.90;;;;;;4926970;29;20062;-74
2023/08/29 00:08:59;;;;;;;5.03;2.70;;;12.30;97.00;;;;;;4928229;29;20189;-74
2023/08/29 00:11:26;;;;;;;5.35;2.72;;;12.30;97.30;;;;;;4934877;29;20102;-74
2023/08/29 00:13:53;;;;;;;4.03;2.50;;;12.40;97.50;;;;;;4923531;29;21397;-74
2023/08/29 00:16:20;;;;;;;10.00;3.30;;;12.40;97.40;;;;;;4924686;29;20052;-74
2023/08/29 00:18:47;;;;;;;5.40;2.63;;;12.40;97.60;;;;;;4928320;29;20051;-75
2023/08/29 00:21:14;;;;;;;5.72;3.08;;;12.40;97.70;;;;;;4925098;29;20154;-74
2023/08/29 00:23:40;;;;;;;7.07;3.70;;;12.50;97.50;;;;;;4930476;29;20162;-74
2023/08/29 00:26:07;;;;;;;8.13;3.95;;;12.50;97.80;;;;;;4925530;29;20103;-74
2023/08/29 00:28:34;;;;;;;9.20;3.45;;;12.50;98.10;;;;;;4924114;29;20152;-74
2023/08/29 00:31:02;;;;;;;3.85;2.40;;;12.50;97.80;;;;;;4925074;29;20146;-74
2023/08/29 00:33:28;;;;;;;7.47;3.25;;;12.50;97.60;;;;;;4919637;29;20155;-74
2023/08/29 00:35:55;;;;;;;5.40;2.88;;;12.50;97.40;;;;;;4941019;29;20424;-74
2023/08/29 00:38:22;;;;;;;6.18;2.60;;;12.50;97.10;;;;;;4924382;29;20658;-75
2023/08/29 00:40:49;;;;;;;4.63;3.45;;;12.50;97.00;;;;;;4929254;29;20724;-73
2023/08/29 00:43:16;;;;;;;4.30;2.42;;;12.50;97.10;;;;;;4931801;29;20071;-74
2023/08/29 00:45:43;;;;;;;4.55;2.75;;;12.50;96.90;;;;;;4919482;29;20058;-74
2023/08/29 00:48:11;;;;;;;4.70;2.70;;;12.50;96.70;;;;;;4935524;28;20063;-74
2023/08/29 00:50:39;;;;;;;8.07;2.80;;;12.50;96.90;;;;;;4923477;29;20059;-74
2023/08/29 00:53:08;;;;;;;5.60;3.00;;;12.50;97.00;;;;;;4917699;29;20093;-74
2023/08/29 00:55:35;;;;;;;4.55;3.03;;;12.50;97.50;;;;;;4921293;29;20091;-75
2023/08/29 00:58:03;;;;;;;7.18;3.08;;;12.50;97.30;;;;;;4954838;28;20090;-74
2023/08/29 01:00:31;;;;;;;5.68;3.13;;;12.50;97.10;;;;;;4949107;28;20058;-76
2023/08/29 01:03:00;;;;;;;4.50;2.78;;;12.50;96.90;;;;;;4923922;29;20066;-76
2023/08/29 01:05:30;;;;;;;7.90;3.72;;;12.50;97.40;;;;;;4922125;29;20092;-77
2023/08/29 01:07:59;;;;;;;5.57;3.67;;;12.50;97.60;;;;;;4924640;29;20504;-76
2023/08/29 01:10:36;;;;;;;4.88;3.00;;;12.40;97.50;;;;;;4923958;29;20083;-76
2023/08/29 01:13:15;;;;;;;11.80;3.92;;;12.40;97.50;;;;;;4927416;29;20059;-76
2023/08/29 01:15:48;;;;;;;7.35;3.65;;;12.40;98.00;;;;;;4938233;28;20060;-74
2023/08/29 01:18:19;;;;;;;5.93;3.15;;;12.40;98.20;;;;;;4933279;29;20082;-76
2023/08/29 01:20:50;;;;;;;5.60;2.85;;;12.50;98.10;;;;;;4924203;29;20060;-76
2023/08/29 01:23:43;;;;;;;13.45;3.53;;;12.50;98.10;;;;;;4933953;29;20499;-77
2023/08/29 01:26:15;;;;;;;8.40;3.53;;;12.40;98.40;;;;;;4919297;29;20079;-77
2023/08/29 01:28:47;;;;;;;6.30;3.30;;;12.40;98.50;;;;;;4926591;29;20134;-77
2023/08/29 01:31:19;;;;;;;6.82;3.63;;;12.40;98.70;;;;;;4929381;29;20054;-77
2023/08/29 01:33:47;;;;;;;9.00;3.58;;;12.40;98.70;;;;;;4928397;29;20425;-77
2023/08/29 01:36:15;;;;;;;7.32;3.78;;;12.40;99.00;;;;;;4942698;28;20054;-77
2023/08/29 01:38:44;;;;;;;7.25;3.95;;;12.40;98.90;;;;;;4934934;29;20098;-77
2023/08/29 01:41:12;;;;;;;9.23;4.03;;;12.50;98.90;;;;;;4925761;29;20146;-77
2023/08/29 01:43:43;;;;;;;8.13;4.65;;;12.40;98.70;;;;;;4937919;29;20058;-77
2023/08/29 01:46:12;;;;;;;5.03;3.45;;;12.40;98.70;;;;;;4925764;29;20071;-77
2023/08/29 01:48:42;;;;;;;7.70;3.20;;;12.40;98.70;;;;;;4940736;29;20051;-77
2023/08/29 01:51:09;;;;;;;10.90;3.95;;;12.40;98.70;;;;;;4929458;29;20059;-77
2023/08/29 01:53:38;;;;;;;4.47;2.78;;;12.40;98.50;;;;;;4944593;28;20086;-77
2023/08/29 01:56:10;;;;;;;4.03;3.03;;;12.30;98.30;;;;;;4928670;29;20060;-77
2023/08/29 01:58:39;;;;;;;4.20;2.83;;;12.30;98.50;;;;;;4927894;29;20404;-77
2023/08/29 02:01:06;;;;;;;5.70;3.53;;;12.30;98.50;;;;;;4930197;29;20079;-78
2023/08/29 02:03:49;;;;;;;7.25;3.25;;;12.20;98.40;;;;;;4934240;29;20060;-77
2023/08/29 02:06:16;;;;;;;7.38;3.63;;;12.20;98.80;;;;;;4934070;29;20051;-77
2023/08/29 02:08:44;;;;;;;4.90;3.55;;;12.20;99.10;;;;;;4929189;29;20079;-77
2023/08/29 02:11:11;;;;;;;10.85;3.28;;;12.10;98.70;;;;;;4920995;29;20489;-77
2023/08/29 02:13:38;;;;;;;8.82;5.03;;;12.10;99.10;;;;;;4916444;29;20051;-76
2023/08/29 02:16:05;;;;;;;7.40;4.30;;;12.10;99.00;;;;;;4919084;29;20762;-77
2023/08/29 02:18:31;;;;;;;8.32;3.75;;;12.10;99.10;;;;;;4927790;29;20121;-77
2023/08/29 02:20:58;;;;;;;7.68;4.18;;;12.00;99.30;;;;;;4939813;29;20563;-76
2023/08/29 02:23:27;;;;;;;5.80;3.50;;;12.00;99.80;;;;;;4931216;29;20088;-77
2023/08/29 02:26:06;;;;;;;11.15;3.90;;;11.90;99.70;;;;;;4943387;29;20067;-76
2023/08/29 02:28:37;;;;;;;6.75;4.03;;;11.90;99.80;;;;;;4927856;29;20051;-77
2023/08/29 02:31:09;;;;;;;8.00;3.85;;;11.90;99.80;;;;;;4928486;29;20110;-77
2023/08/29 02:33:38;;;;;;;6.72;3.42;;;11.80;99.90;;;;;;4926400;29;20071;-76
2023/08/29 02:36:10;;;;;;;7.65;3.33;;;11.80;99.90;;;;;;4925679;29;20111;-76
2023/08/29 02:38:40;;;;;;;5.45;3.60;;;11.70;100.00;;;;;;4934576;28;20059;-77
2023/08/29 02:41:07;;;;;;;11.15;3.92;;;11.70;99.90;;;;;;4928968;29;20087;-76
2023/08/29 02:43:35;;;;;;;5.28;3.42;;;11.60;100.00;;;;;;4937757;29;20083;-76
2023/08/29 02:46:03;;;;;;;7.85;3.65;;;11.60;100.00;;;;;;4945624;28;20502;-76
2023/08/29 02:48:30;;;;;;;7.68;4.15;;;11.60;100.00;;;;;;4932792;29;20056;-76
2023/08/29 02:50:57;;;;;;;8.60;3.97;;;11.60;100.00;;;;;;4932924;29;20133;-76
2023/08/29 02:53:24;;;;;;;10.60;4.25;;;11.60;100.00;;;;;;4932371;29;20087;-76
2023/08/29 02:55:52;;;;;;;8.82;7.53;;;11.50;100.00;;;;;;4932813;29;20135;-76
2023/08/29 02:58:21;;;;;;;10.95;4.10;;;11.50;100.00;;;;;;4929141;28;20442;-75
2023/08/29 03:01:09;;;;;;;9.55;4.43;;;11.50;100.00;;;;;;4916265;29;20064;-76
2023/08/29 03:03:38;;;;;;;14.55;5.00;;;11.50;100.00;;;;;;4921665;29;20055;-75
2023/08/29 03:06:06;;;;;;;9.40;4.57;;;11.50;100.00;;;;;;4924697;29;20202;-75
2023/08/29 03:08:34;;;;;;;9.38;3.80;;;11.50;100.00;;;;;;4918931;29;20060;-76
2023/08/29 03:11:05;;;;;;;6.93;3.97;;;11.40;100.00;;;;;;4928338;29;20083;-76
2023/08/29 03:13:32;;;;;;;9.75;4.53;;;11.40;100.00;;;;;;4920175;29;20052;-74
2023/08/29 03:15:59;;;;;;;6.72;3.80;;;11.40;100.00;;;;;;4926334;29;20226;-74
2023/08/29 03:18:27;;;;;;;5.60;3.60;;;11.30;100.00;;;;;;4924179;29;20617;-73
2023/08/29 03:20:54;;;;;;;6.20;4.00;;;11.30;100.00;;;;;;4924087;29;20044;-73
2023/08/29 03:23:21;;;;;;;8.68;4.32;;;11.20;100.00;;;;;;4922006;29;20770;-73
2023/08/29 03:25:48;;;;;;;9.10;4.60;;;11.20;100.00;;;;;;4927101;29;20111;-73
2023/08/29 03:28:15;;;;;;;12.50;4.15;;;11.20;100.00;;;;;;4927459;29;20059;-74
2023/08/29 03:30:42;;;;;;;8.55;4.88;;;11.20;100.00;;;;;;4927297;29;20720;-73
2023/08/29 03:33:09;;;;;;;10.95;4.18;;;11.10;100.00;;;;;;4930339;29;20161;-73
2023/08/29 03:35:36;;;;;;;9.52;4.65;;;11.20;100.00;;;;;;4926361;29;20134;-73
2023/08/29 03:38:03;;;;;;;10.15;4.45;;;11.20;100.00;;;;;;4929853;29;20592;-73
2023/08/29 03:40:30;;;;;;;12.13;4.47;;;11.20;100.00;;;;;;4926806;29;20083;-73
2023/08/29 03:42:57;;;;;;;10.77;4.70;;;11.20;100.00;;;;;;4934790;29;20051;-73
2023/08/29 03:45:24;;;;;;;8.55;5.07;;;11.30;100.00;;;;;;4927346;28;20573;-73
2023/08/29 03:47:51;;;;;;;9.65;5.85;;;11.30;100.00;;;;;;4926661;29;20062;-73
2023/08/29 03:50:19;;;;;;;9.25;4.70;;;11.40;100.00;;;;;;4944440;28;20059;-73
2023/08/29 03:52:48;;;;;;;6.50;3.92;;;11.40;100.00;;;;;;4926918;29;20071;-74
2023/08/29 03:55:15;;;;;;;9.70;4.97;;;11.40;100.00;;;;;;4930313;29;20114;-73
2023/08/29 03:57:41;;;;;;;8.52;5.25;;;11.40;100.00;;;;;;4926947;29;20054;-74
2023/08/29 04:00:10;;;;;;;12.13;5.53;;;11.50;100.00;;;;;;4948158;28;20110;-73
2023/08/29 04:02:38;;;;;;;8.50;4.90;;;11.60;100.00;;;;;;4922741;29;20148;-74
2023/08/29 04:05:14;;;;;;;10.88;6.10;;;11.60;100.00;;;;;;4939184;29;20591;-73
2023/08/29 04:07:42;;;;;;;11.98;5.95;;;11.60;100.00;;;;;;4928618;29;20071;-73
2023/08/29 04:10:10;;;;;;;12.50;5.85;;;11.60;100.00;;;;;;4916892;29;20543;-74
2023/08/29 04:12:37;;;;;;;15.52;5.72;;;11.60;100.00;;;;;;4925459;29;20114;-73
2023/08/29 04:15:04;;;;;;;9.20;4.90;;;11.60;100.00;;;;;;4924972;29;20051;-73
2023/08/29 04:17:31;;;;;;;9.80;5.53;;;11.60;100.00;;;;;;4923297;29;20057;-74
2023/08/29 04:20:00;;;;;;;15.52;5.65;;;11.60;100.00;;;;;;4931665;29;20048;-73
2023/08/29 04:22:27;;;;;;;11.48;6.05;;;11.60;100.00;;;;;;4925781;29;20048;-73
2023/08/29 04:24:54;;;;;;;16.92;7.53;;;11.60;100.00;;;;;;4925216;29;20193;-73
2023/08/29 04:27:21;;;;;;;13.65;7.43;;;11.70;100.00;;;;;;4928950;29;20114;-73
2023/08/29 04:29:48;;;;;;;15.75;6.85;;;11.70;100.00;;;;;;4928131;29;20131;-73
2023/08/29 04:32:15;;;;;;;13.05;6.82;;;11.80;100.00;;;;;;4925179;29;20054;-73
2023/08/29 04:34:42;;;;;;;16.27;7.18;;;11.80;100.00;;;;;;4926590;29;20052;-73
2023/08/29 04:37:10;;;;;;;16.40;7.57;;;11.80;100.00;;;;;;4930634;29;20067;-74
2023/08/29 04:39:37;;;;;;;11.95;6.78;;;11.90;100.00;;;;;;4929144;29;20052;-74
2023/08/29 04:42:05;;;;;;;16.83;8.13;;;11.90;100.00;;;;;;4920804;29;20412;-73
2023/08/29 04:44:33;;;;;;;15.32;6.90;;;11.90;100.00;;;;;;4927286;29;20051;-74
2023/08/29 04:47:00;;;;;;;18.38;7.50;;;12.00;100.00;;;;;;4923476;29;20545;-74
2023/08/29 04:49:27;;;;;;;13.65;8.02;;;12.00;100.00;;;;;;4927830;29;20059;-73
2023/08/29 04:51:54;;;;;;;12.23;7.30;;;12.00;100.00;;;;;;4936312;29;20951;-73
2023/08/29 04:54:22;;;;;;;21.08;7.50;;;12.10;100.00;;;;;;4925791;29;20102;-75
2023/08/29 04:56:48;;;;;;;23.48;8.38;;;12.10;100.00;;;;;;4921692;29;20057;-74
2023/08/29 04:59:15;;;;;;;16.20;8.80;;;12.20;100.00;;;;;;4930408;29;20048;-74
2023/08/29 05:01:42;;;;;;;17.52;7.75;;;12.20;100.00;;;;;;4922323;29;20095;-73
2023/08/29 05:04:09;;;;;;;13.75;7.45;;;12.20;100.00;;;;;;4924703;29;20126;-74
2023/08/29 05:06:37;;;;;;;14.32;7.28;;;12.30;100.00;;;;;;4926193;29;20533;-74
2023/08/29 05:09:06;;;;;;;14.88;7.95;;;12.40;100.00;;;;;;4927993;29;20520;-85
2023/08/29 05:11:33;;;;;;;15.15;7.95;;;12.40;100.00;;;;;;4942203;29;20050;-77
2023/08/29 05:14:00;;;;;;;15.23;6.72;;;12.50;100.00;;;;;;4926067;29;20055;-78
2023/08/29 05:16:27;;;;;;;11.48;6.32;;;12.50;100.00;;;;;;4938453;28;20043;-77
2023/08/29 05:18:54;;;;;;;20.52;6.57;;;12.50;100.00;;;;;;4934706;29;20139;-75
2023/08/29 05:21:23;;;;;;;16.63;6.60;;;12.60;100.00;;;;;;4928127;29;20055;-76
2023/08/29 05:23:49;;;;;;;10.13;6.30;;;12.60;100.00;;;;;;4931189;29;20063;-77
2023/08/29 05:26:16;;;;;;;8.43;5.55;;;12.60;100.00;;;;;;4927175;29;20090;-76
2023/08/29 05:28:43;;;;;;;13.93;7.25;;;12.70;100.00;;;;;;4928646;29;20052;-76
2023/08/29 05:31:10;;;;;;;15.80;7.22;;;12.70;100.00;;;;;;4932919;29;20067;-76
2023/08/29 05:33:37;;;;;;;13.85;7.40;;;12.80;100.00;;;;;;4925975;29;20062;-78
2023/08/29 05:36:04;;;;;;;15.77;8.43;;;12.80;100.00;;;;;;4930710;29;20058;-80
2023/08/29 05:38:31;;;;;;;12.35;7.70;;;12.80;100.00;;;;;;4929461;29;20419;-72
2023/08/29 05:40:57;;;;;;;11.35;6.97;;;12.90;100.00;;;;;;4930742;29;20043;-71
2023/08/29 05:43:24;;;;;;;22.13;7.00;;;12.90;100.00;;;;;;4925445;29;20052;-72
2023/08/29 05:45:54;;;;;;;19.20;7.40;;;13.00;100.00;;;;;;4921455;29;20066;-71
2023/08/29 05:48:23;;;;;;;10.88;6.55;;;13.00;100.00;;;;;;4919515;29;20107;-71
2023/08/29 05:50:51;;;;;;;12.10;7.72;;;13.00;99.60;;;;;;4926461;29;20132;-78
2023/08/29 05:53:18;;;;;;;14.48;8.18;;;13.10;99.60;;;;;;4935252;29;20117;-77
2023/08/29 05:55:46;;;;;;;15.73;7.63;;;13.10;99.70;;;;;;4925641;29;20048;-77
2023/08/29 05:58:12;;;;;;;18.20;8.55;;;13.10;99.80;;;;;;4936557;29;20055;-77
2023/08/29 06:00:39;;;;;;;22.77;10.05;;;13.20;100.00;;;;;;4948169;28;20102;-77
2023/08/29 06:03:07;;;;;;;21.27;10.85;;;13.20;100.00;;;;;;4941488;29;20059;-77
2023/08/29 06:05:41;;;;;;;23.42;11.88;;;13.30;100.00;;;;;;4939482;29;20056;-77
2023/08/29 06:08:08;;;;;;;22.35;11.80;;;13.40;100.00;;;;;;4922092;29;20058;-77
2023/08/29 06:10:46;;;;;;;24.10;11.65;;;13.50;100.00;;;;;;4937885;29;20051;-77
2023/08/29 06:13:13;;;;;;;22.77;11.52;;;13.50;100.00;;;;;;4931330;28;20183;-77
2023/08/29 06:15:40;;;;;;;19.70;11.20;;;13.60;100.00;;;;;;4935713;29;20162;-77
2023/08/29 06:18:07;;;;;;;33.50;11.40;;;13.80;99.90;;;;;;4935390;29;20575;-78
2023/08/29 06:20:34;;;;;;;21.20;9.68;;;13.80;99.30;;;;;;4934489;29;20048;-77
2023/08/29 06:23:01;;;;;;;16.40;9.45;;;13.80;99.30;;;;;;4929462;29;20134;-77
2023/08/29 06:25:28;;;;;;;16.52;9.05;;;13.80;99.10;;;;;;4940885;29;20154;-77
2023/08/29 06:27:55;;;;;;;27.60;9.32;;;13.90;99.00;;;;;;4930421;29;20502;-77
2023/08/29 06:30:22;;;;;;;20.30;9.27;;;13.90;98.90;;;;;;4929780;29;20050;-77
2023/08/29 06:32:50;;;;;;;20.55;9.07;;;13.90;98.70;;;;;;4931319;29;20477;-77
2023/08/29 06:35:17;;;;;;;13.13;8.80;;;13.90;99.20;;;;;;4934342;29;20138;-72
2023/08/29 06:37:44;;;;;;;19.73;8.35;;;14.00;99.10;;;;;;4934621;29;20687;-71
2023/08/29 06:40:11;;;;;;;20.13;8.95;;;14.00;98.80;;;;;;4931778;29;20047;-72
2023/08/29 06:42:38;;;;;;;16.35;8.70;;;14.10;98.60;;;;;;4933047;29;20054;-71
2023/08/29 06:45:06;;;;;;;19.27;9.45;;;14.20;98.30;;;;;;4928116;29;20158;-72
2023/08/29 06:47:33;;;;;;;16.55;10.43;;;14.20;98.50;;;;;;4942001;28;20178;-72
2023/08/29 06:50:00;;;;;;;17.73;9.15;;;14.30;98.60;;;;;;4927334;29;20078;-72
2023/08/29 06:52:27;;;;;;;14.38;8.38;;;14.30;98.70;;;;;;4922838;29;20063;-72
2023/08/29 06:54:55;;;;;;;16.88;9.40;;;14.30;98.70;;;;;;4935303;29;20926;-72
2023/08/29 06:57:24;;;;;;;14.80;9.18;;;14.50;98.90;;;;;;4923364;29;20067;-72
2023/08/29 06:59:52;;;;;;;17.98;9.52;;;14.60;98.50;;;;;;4921580;29;20154;-72
2023/08/29 07:02:19;;;;;;;18.45;9.38;;;14.60;98.10;;;;;;4926616;29;20059;-72
2023/08/29 07:04:46;;;;;;;15.27;9.50;;;14.70;97.90;;;;;;4926705;29;20190;-72
2023/08/29 07:07:14;;;;;;;20.17;8.93;;;14.80;98.00;;;;;;4919686;29;20093;-71
2023/08/29 07:09:43;;;;;;;20.75;9.70;;;14.90;97.70;;;;;;4922257;29;20425;-72
2023/08/29 07:12:10;;;;;;;16.33;9.00;;;15.00;97.50;;;;;;4919395;29;20056;-72
2023/08/29 07:14:36;;;;;;;13.82;9.65;;;15.10;97.40;;;;;;4931248;29;20061;-72
2023/08/29 07:17:04;;;;;;;17.88;8.93;;;15.10;97.20;;;;;;4925001;29;20058;-72
2023/08/29 07:19:36;;;;;;;18.63;9.98;;;15.30;96.90;;;;;;4926067;29;20048;-72
2023/08/29 07:22:04;;;;;;;17.90;10.20;;;15.40;97.00;;;;;;4921390;29;20075;-72
2023/08/29 07:24:49;;;;;;;17.80;9.50;;;15.50;96.20;;;;;;4926738;29;20106;-72
2023/08/29 07:27:16;;;;;;;27.42;9.73;;;15.60;95.60;;;;;;4927442;29;20121;-72
2023/08/29 07:29:43;;;;;;;15.07;9.63;;;15.70;95.50;;;;;;4929728;29;20138;-72
2023/08/29 07:32:10;;;;;;;19.42;9.10;;;15.80;95.20;;;;;;4935534;29;20142;-72
2023/08/29 07:34:39;;;;;;;18.33;9.63;;;15.90;94.70;;;;;;4941857;28;20111;-72
2023/08/29 07:37:07;;;;;;;20.58;9.15;;;15.90;94.60;;;;;;4924600;29;20108;-71
2023/08/29 07:39:34;;;;;;;17.00;9.57;;;16.00;94.60;;;;;;4924636;29;20047;-72
2023/08/29 07:42:02;;;;;;;15.23;9.88;;;16.10;94.30;;;;;;4930848;29;20550;-72
2023/08/29 07:44:30;;;;;;;16.15;9.10;;;16.10;93.60;;;;;;4928329;29;20055;-72
2023/08/29 07:46:57;;;;;;;23.60;10.55;;;16.10;93.70;;;;;;4935230;29;20055;-72
2023/08/29 07:49:41;;;;;;;19.35;8.90;;;16.20;93.50;;;;;;4921268;29;20245;-73
2023/08/29 07:52:08;;;;;;;17.65;8.55;;;16.20;93.70;;;;;;4922151;29;20056;-72
2023/08/29 07:54:35;;;;;;;16.70;8.57;;;16.30;94.10;;;;;;4922089;29;20058;-71
2023/08/29 07:57:03;;;;;;;18.38;8.13;;;16.40;93.60;;;;;;4949565;28;20058;-72
2023/08/29 07:59:30;;;;;;;20.10;8.38;;;16.50;93.60;;;;;;4923007;29;20054;-73
2023/08/29 08:01:57;;;;;;;16.83;7.65;;;16.60;93.60;;;;;;4926828;29;20052;-73
2023/08/29 08:04:25;;;;;;;12.65;6.85;;;16.70;93.30;;;;;;4926231;29;20130;-73
2023/08/29 08:06:51;;;;;;;15.73;6.88;;;16.80;93.20;;;;;;4933749;28;21361;-74
2023/08/29 08:09:18;;;;;;;12.43;6.85;;;16.90;92.60;;;;;;4930766;29;20430;-73
2023/08/29 08:11:46;;;;;;;10.20;6.78;;;17.00;93.10;;;;;;4925940;29;20216;-73
2023/08/29 08:14:13;;;;;;;14.70;7.30;;;17.20;93.10;;;;;;4920341;29;20055;-73
2023/08/29 08:16:40;;;;;;;11.45;6.82;;;17.30;92.50;;;;;;4924568;29;20071;-73
2023/08/29 08:19:07;;;;;;;19.70;6.45;;;17.50;92.50;;;;;;4926704;29;20140;-74
2023/08/29 08:21:34;;;;;;;8.73;6.38;;;17.70;92.00;;;;;;4917720;29;20062;-74
2023/08/29 08:24:01;;;;;;;10.65;6.00;;;17.90;91.30;;;;;;4925269;29;20066;-74
2023/08/29 08:26:28;;;;;;;10.13;5.75;;;18.00;90.40;;;;;;4927959;29;20134;-76
2023/08/29 08:28:55;;;;;;;15.18;6.25;;;18.10;89.40;;;;;;4926083;29;20059;-75
2023/08/29 08:31:22;;;;;;;13.45;6.20;;;18.20;89.70;;;;;;4921757;29;20075;-76
2023/08/29 08:33:49;;;;;;;10.07;5.03;;;18.40;88.50;;;;;;4925537;29;20063;-75
2023/08/29 08:36:16;;;;;;;7.60;4.88;;;18.60;88.50;;;;;;4923817;29;20516;-75
2023/08/29 08:38:43;;;;;;;11.77;5.13;;;18.80;87.10;;;;;;4924622;29;20063;-75
2023/08/29 08:41:11;;;;;;;11.15;4.82;;;18.60;86.30;;;;;;4919113;29;20056;-76
2023/08/29 08:43:41;;;;;;;9.75;4.22;;;18.80;86.30;;;;;;4944397;28;20051;-75
2023/08/29 08:46:09;;;;;;;9.88;4.43;;;18.90;85.80;;;;;;4923880;29;20059;-75
2023/08/29 08:48:38;;;;;;;10.35;3.92;;;19.00;85.30;;;;;;4927686;29;20110;-75
2023/08/29 08:51:05;;;;;;;9.25;4.05;;;19.10;85.60;;;;;;4923620;29;20486;-75
2023/08/29 08:53:34;;;;;;;5.80;3.63;;;18.90;84.60;;;;;;4927032;29;20060;-75
2023/08/29 08:56:02;;;;;;;9.13;4.30;;;19.00;85.10;;;;;;4936868;29;20073;-75
2023/08/29 08:58:29;;;;;;;7.20;4.05;;;19.00;84.60;;;;;;4951615;28;20057;-74
2023/08/29 09:00:56;;;;;;;10.88;4.28;;;19.10;84.60;;;;;;4929192;29;20101;-75
2023/08/29 09:03:23;;;;;;;10.68;4.25;;;19.20;84.40;;;;;;4922515;29;20059;-75
2023/08/29 09:05:50;;;;;;;9.23;4.03;;;19.40;84.10;;;;;;4930834;29;20568;-74
2023/08/29 09:08:20;;;;;;;10.38;3.03;;;19.50;82.50;;;;;;4929448;29;20056;-74
2023/08/29 09:10:51;;;;;;;7.20;3.25;;;19.60;82.10;;;;;;4927210;29;20044;-74
2023/08/29 09:13:20;;;;;;;5.57;3.70;;;19.70;81.80;;;;;;4946416;28;20096;-74
2023/08/29 09:15:47;;;;;;;6.93;3.35;;;19.60;81.40;;;;;;4936353;29;20058;-75
2023/08/29 09:18:24;;;;;;;5.60;3.08;;;19.70;82.10;;;;;;4935308;29;20047;-79
2023/08/29 09:20:53;;;;;;;8.10;3.17;;;19.60;80.60;;;;;;4928833;29;20047;-80
2023/08/29 09:23:26;;;;;;;15.77;3.80;;;19.50;80.00;;;;;;4923769;29;20052;-80
2023/08/29 09:25:58;;;;;;;8.27;2.80;;;19.50;80.10;;;;;;4925740;29;20043;-80
2023/08/29 09:28:29;;;;;;;6.60;2.58;;;19.60;80.80;;;;;;4948211;29;20059;-74
2023/08/29 09:31:09;;;;;;;9.63;3.25;;;19.60;80.20;;;;;;4924539;29;20047;-74
2023/08/29 09:33:38;;;;;;;5.20;2.80;;;19.60;80.40;;;;;;4923561;29;20051;-76
2023/08/29 09:36:05;;;;;;;6.13;2.40;;;19.70;80.40;;;;;;4919407;29;20954;-75
2023/08/29 09:38:33;;;;;;;6.78;2.63;;;19.80;80.60;;;;;;4923903;29;20913;-74
2023/08/29 09:41:00;;;;;;;5.18;1.90;;;19.80;80.70;;;;;;4921573;29;20083;-74
2023/08/29 09:43:28;;;;;;;3.28;2.00;;;20.00;80.20;;;;;;4919432;29;20083;-84
2023/08/29 09:45:56;;;;;;;2.42;1.70;;;20.20;79.20;;;;;;4920562;29;20047;-74
2023/08/29 09:48:23;;;;;;;3.28;1.58;;;20.40;78.50;;;;;;4925041;29;20151;-73
2023/08/29 09:50:51;;;;;;;2.60;1.42;;;20.50;77.40;;;;;;4920352;29;20107;-74
2023/08/29 09:53:19;;;;;;;6.60;1.90;;;20.70;76.20;;;;;;4924715;29;20075;-74
2023/08/29 09:55:52;;;;;;;4.18;1.77;;;20.70;76.10;;;;;;4924206;29;20131;-74
2023/08/29 09:58:25;;;;;;;5.35;1.90;;;20.80;76.70;;;;;;4927449;29;20051;-74
2023/08/29 10:00:52;;;;;;;3.97;1.60;;;20.80;74.70;;;;;;4921562;29;20043;-74
2023/08/29 10:03:19;;;;;;;3.63;1.40;;;20.70;74.70;;;;;;4923244;29;20119;-74
2023/08/29 10:05:48;;;;;;;2.72;1.40;;;20.60;73.70;;;;;;4925810;29;20058;-75
2023/08/29 10:08:40;;;;;;;3.83;1.90;;;20.60;74.90;;;;;;4929093;29;20071;-74
2023/08/29 10:11:08;;;;;;;11.23;2.20;;;20.70;75.60;;;;;;4915763;29;20074;-74
2023/08/29 10:13:36;;;;;;;11.55;1.85;;;20.60;75.60;;;;;;4929042;29;20651;-74
2023/08/29 10:16:04;;;;;;;4.70;1.17;;;20.50;75.30;;;;;;4922916;29;20051;-75
2023/08/29 10:18:33;;;;;;;2.45;1.30;;;20.50;75.60;;;;;;4928091;29;20057;-75
2023/08/29 10:21:01;;;;;;;4.32;1.58;;;20.60;75.50;;;;;;4928773;29;20056;-75
2023/08/29 10:23:32;;;;;;;12.60;1.65;;;20.50;73.90;;;;;;4931237;29;20055;-75
2023/08/29 10:26:01;;;;;;;5.82;1.50;;;20.50;74.00;;;;;;4928606;29;20606;-75
2023/08/29 10:28:30;;;;;;;2.47;1.20;;;20.40;73.40;;;;;;4928790;29;20078;-75
2023/08/29 10:31:04;;;;;;;1.20;1.10;;;20.50;73.90;;;;;;4928257;29;20059;-75
2023/08/29 10:33:36;;;;;;;2.08;1.30;;;20.60;72.70;;;;;;4929256;29;20915;-75
2023/08/29 10:36:10;;;;;;;4.50;1.50;;;20.60;72.90;;;;;;4928347;29;20059;-75
2023/08/29 10:38:46;;;;;;;7.53;1.38;;;20.70;72.20;;;;;;4925873;29;20062;-75
2023/08/29 10:41:15;;;;;;;2.20;1.05;;;20.70;72.10;;;;;;4944548;29;20116;-81
2023/08/29 10:43:43;;;;;;;6.03;1.60;;;20.70;70.80;;;;;;4927890;29;20223;-81
2023/08/29 10:46:14;;;;;;;6.43;1.95;;;20.90;71.50;;;;;;4943671;28;20165;-82
2023/08/29 10:48:44;;;;;;;3.83;1.55;;;21.00;71.60;;;;;;4928470;29;20106;-81
2023/08/29 10:51:12;;;;;;;2.58;1.40;;;20.70;70.70;;;;;;4940230;29;20047;-81
2023/08/29 10:53:47;;;;;;;2.42;1.30;;;21.10;71.10;;;;;;4931793;29;20058;-81
2023/08/29 10:56:18;;;;;;;5.53;1.23;;;21.30;70.00;;;;;;4930104;29;20134;-81
2023/08/29 10:58:47;;;;;;;3.92;1.17;;;21.20;70.10;;;;;;4927864;29;20059;-75
2023/08/29 11:01:33;;;;;;;5.80;1.27;;;21.20;68.30;;;;;;4924625;29;20565;-74
2023/08/29 11:04:21;;;;;;;3.85;1.17;;;21.40;69.10;;;;;;4928315;29;20059;-81
2023/08/29 11:06:55;;;;;;;3.75;1.00;;;21.60;68.50;;;;;;4920465;29;20555;-81
2023/08/29 11:09:24;;;;;;;2.00;1.27;;;21.60;67.20;;;;;;4921612;29;20066;-81
2023/08/29 11:12:05;;;;;;;3.85;1.33;;;21.70;67.20;;;;;;4928731;29;20043;-81
2023/08/29 11:14:56;;;;;;;2.17;1.20;;;21.70;67.60;;;;;;4928998;29;20052;-75
2023/08/29 11:17:24;;;;;;;6.10;1.48;;;21.80;67.20;;;;;;4924533;29;20056;-75
2023/08/29 11:19:57;;;;;;;6.13;1.58;;;21.80;67.90;;;;;;4926688;29;20059;-75
2023/08/29 11:22:29;;;;;;;4.00;1.15;;;22.00;67.50;;;;;;4927324;29;20509;-75
2023/08/29 11:25:00;;;;;;;2.83;1.27;;;22.20;66.60;;;;;;4919123;29;20048;-75
2023/08/29 11:27:29;;;;;;;2.45;1.20;;;22.10;65.60;;;;;;4927242;29;20103;-75
2023/08/29 11:29:59;;;;;;;6.40;1.15;;;21.80;66.40;;;;;;4928051;29;20449;-75
2023/08/29 11:32:52;;;;;;;4.50;2.00;;;21.70;66.40;;;;;;4922564;29;20062;-75
2023/08/29 11:35:20;;;;;;;5.00;1.17;;;21.10;67.10;;;;;;4917161;29;20082;-75
2023/08/29 11:37:48;;;;;;;2.95;1.10;;;20.90;68.50;;;;;;4920447;29;20048;-75
2023/08/29 11:40:21;;;;;;;9.02;1.20;;;21.00;68.50;;;;;;4924958;29;20048;-75
2023/08/29 11:43:09;;;;;;;11.82;1.20;;;21.00;67.80;;;;;;4927921;29;20052;-73
2023/08/29 11:46:01;;;;;;;3.20;1.13;;;20.90;68.20;;;;;;4924371;29;20058;-72
2023/08/29 11:48:31;;;;;;;2.83;1.02;;;20.80;67.20;;;;;;4923217;29;20052;-75
2023/08/29 11:51:04;;;;;;;0.85;0.73;;;20.60;65.60;;;;;;4927999;29;20492;-75
2023/08/29 11:53:37;;;;;;;3.38;1.10;;;20.40;67.00;;;;;;4923966;29;20063;-75
2023/08/29 11:56:09;;;;;;;5.22;1.10;;;20.40;67.40;;;;;;4926178;29;20135;-75
2023/08/29 11:58:39;;;;;;;4.93;1.10;;;20.30;67.50;;;;;;4927430;29;20582;-74
2023/08/29 12:01:08;;;;;;;2.47;1.08;;;20.30;68.50;;;;;;4941741;29;20130;-75
2023/08/29 12:03:39;;;;;;;1.80;1.10;;;20.30;68.20;;;;;;4924587;29;20054;-75
2023/08/29 12:06:11;;;;;;;2.33;0.90;;;20.40;68.30;;;;;;4919402;29;20079;-75
2023/08/29 12:08:40;;;;;;;7.78;1.45;;;20.30;68.60;;;;;;4918479;29;20051;-75
2023/08/29 12:11:13;;;;;;;2.97;1.63;;;20.20;68.40;;;;;;4924815;29;20103;-74
2023/08/29 12:14:00;;;;;;;2.47;1.50;;;20.10;69.00;;;;;;4928571;29;20057;-75
2023/08/29 12:16:28;;;;;;;2.80;1.25;;;19.90;69.30;;;;;;4925743;29;20063;-75
2023/08/29 12:19:13;;;;;;;4.93;1.30;;;19.90;69.40;;;;;;4924819;29;20052;-75
2023/08/29 12:21:41;;;;;;;1.53;0.93;;;19.80;69.60;;;;;;4915284;29;20130;-75
2023/08/29 12:24:12;;;;;;;4.00;1.27;;;19.60;70.20;;;;;;4919372;29;20039;-80
2023/08/29 12:26:39;;;;;;;6.45;1.40;;;19.60;71.30;;;;;;4926151;29;20139;-80
2023/08/29 12:29:06;;;;;;;3.65;1.30;;;19.60;71.00;;;;;;4929252;29;20130;-81
2023/08/29 12:31:33;;;;;;;8.55;1.38;;;19.60;70.40;;;;;;4927682;29;20516;-80
2023/08/29 12:34:00;;;;;;;5.07;0.98;;;19.60;69.70;;;;;;4929579;29;20067;-75
2023/08/29 12:36:27;;;;;;;5.75;1.38;;;19.60;68.90;;;;;;4921771;29;20059;-75
2023/08/29 12:38:56;;;;;;;5.93;1.10;;;19.50;69.20;;;;;;4925943;29;20051;-75
2023/08/29 12:41:24;;;;;;;10.48;2.50;;;19.40;69.80;;;;;;4924579;29;20074;-74
2023/08/29 12:43:51;;;;;;;3.47;1.05;;;19.40;70.50;;;;;;4924668;29;20044;-80
2023/08/29 12:46:19;;;;;;;8.73;1.27;;;19.40;70.60;;;;;;4926833;29;20044;-80
2023/08/29 12:48:46;;;;;;;14.10;1.55;;;19.40;71.00;;;;;;4926953;29;20056;-80
2023/08/29 12:51:13;;;;;;;4.50;1.48;;;19.40;71.20;;;;;;4928757;29;20048;-80